createdAt,value
2018-04-30T00:01:11.407Z,5.00
2018-04-30T00:03:40.451Z,5.00
2018-04-30T00:06:09.602Z,5.00
2018-04-30T00:08:38.113Z,5.10
2018-04-30T00:11:06.707Z,5.20
2018-04-30T00:13:35.199Z,5.20
2018-04-30T00:16:03.714Z,5.20
2018-04-30T00:18:32.207Z,5.10
2018-04-30T00:21:00.848Z,5.10
2018-04-30T00:23:29.341Z,5.10
2018-04-30T00:25:57.899Z,5.00
2018-04-30T00:28:26.431Z,5.00
2018-04-30T00:30:56.892Z,5.00
2018-04-30T00:33:25.506Z,5.00
2018-04-30T00:35:54.021Z,4.90
2018-04-30T00:38:22.811Z,4.90
2018-04-30T00:40:51.602Z,4.90
2018-04-30T00:43:20.591Z,4.90
2018-04-30T00:45:49.783Z,4.80
2018-04-30T00:48:18.451Z,4.70
2018-04-30T00:50:47.097Z,4.70
2018-04-30T00:53:16.272Z,4.70
2018-04-30T00:55:44.803Z,4.70
2018-04-30T00:58:13.308Z,4.70
2018-04-30T01:00:41.858Z,4.70
2018-04-30T01:03:10.396Z,4.70
2018-04-30T01:05:38.902Z,4.60
2018-04-30T01:08:07.447Z,4.60
2018-04-30T01:10:36.694Z,4.60
2018-04-30T01:13:05.173Z,4.50
2018-04-30T01:15:33.829Z,4.50
2018-04-30T01:18:02.322Z,4.40
2018-04-30T01:20:30.868Z,4.40
2018-04-30T01:23:00.155Z,4.20
2018-04-30T01:25:28.691Z,4.20
2018-04-30T01:27:57.347Z,4.20
2018-04-30T01:30:26.620Z,4.10
2018-04-30T01:32:57.141Z,4.00
2018-04-30T01:35:25.735Z,4.10
2018-04-30T01:37:54.255Z,4.00
2018-04-30T01:40:22.751Z,4.00
2018-04-30T01:42:51.323Z,4.10
2018-04-30T01:45:19.839Z,4.00
2018-04-30T01:47:48.423Z,3.90
2018-04-30T01:50:16.917Z,4.00
2018-04-30T01:52:47.191Z,4.00
2018-04-30T01:55:16.255Z,3.80
2018-04-30T01:57:45.222Z,3.80
2018-04-30T02:00:14.470Z,3.80
2018-04-30T02:02:43.013Z,3.80
2018-04-30T02:05:11.533Z,3.80
2018-04-30T02:07:40.061Z,3.90
2018-04-30T02:10:08.651Z,3.80
2018-04-30T02:12:37.238Z,3.80
2018-04-30T02:15:05.763Z,3.80
2018-04-30T02:17:34.257Z,3.70
2018-04-30T02:20:02.752Z,3.70
2018-04-30T02:22:33.195Z,3.70
2018-04-30T02:25:01.701Z,3.70
2018-04-30T02:27:30.227Z,3.80
2018-04-30T02:29:58.764Z,3.60
2018-04-30T02:32:27.298Z,3.50
2018-04-30T02:34:55.805Z,3.50
2018-04-30T02:37:24.295Z,3.60
2018-04-30T02:39:52.856Z,3.60
2018-04-30T02:42:21.357Z,3.60
2018-04-30T02:44:49.896Z,3.50
2018-04-30T02:47:20.214Z,3.40
2018-04-30T02:49:48.833Z,3.40
2018-04-30T02:52:17.590Z,3.40
2018-04-30T02:54:46.357Z,3.40
2018-04-30T02:57:15.065Z,3.40
2018-04-30T02:59:43.750Z,3.40
2018-04-30T03:02:12.844Z,3.30
2018-04-30T03:04:41.475Z,3.30
2018-04-30T03:07:10.464Z,3.40
2018-04-30T03:09:39.164Z,3.40
2018-04-30T03:12:07.903Z,3.50
2018-04-30T03:14:37.087Z,3.60
2018-04-30T03:17:09.463Z,3.60
2018-04-30T03:19:37.969Z,3.60
2018-04-30T03:22:06.479Z,3.60
2018-04-30T03:24:35.018Z,3.60
2018-04-30T03:27:03.691Z,3.70
2018-04-30T03:29:32.927Z,3.60
2018-04-30T03:32:01.502Z,3.60
2018-04-30T03:34:30.049Z,3.80
2018-04-30T03:36:58.562Z,3.70
2018-04-30T03:39:27.050Z,3.60
2018-04-30T03:41:55.570Z,3.60
2018-04-30T03:44:24.519Z,3.70
2018-04-30T03:46:53.021Z,3.80
2018-04-30T03:49:21.542Z,3.90
2018-04-30T03:51:50.220Z,4.00
2018-04-30T03:54:18.700Z,4.10
2018-04-30T03:56:47.219Z,4.20
2018-04-30T03:59:15.778Z,4.30
2018-04-30T04:01:56.080Z,4.30
2018-04-30T04:04:36.269Z,4.20
2018-04-30T04:07:04.883Z,3.90
2018-04-30T04:09:33.371Z,3.60
2018-04-30T04:12:01.871Z,3.40
2018-04-30T04:14:30.945Z,3.40
2018-04-30T04:16:59.497Z,3.50
2018-04-30T04:19:28.043Z,3.80
2018-04-30T04:21:56.559Z,4.00
2018-04-30T04:24:25.076Z,4.20
2018-04-30T04:26:53.596Z,4.30
2018-04-30T04:29:22.147Z,4.40
2018-04-30T04:31:50.646Z,4.60
2018-04-30T04:34:19.610Z,4.80
2018-04-30T04:36:48.708Z,4.90
2018-04-30T04:39:17.337Z,5.00
2018-04-30T04:41:45.901Z,5.00
2018-04-30T04:44:14.768Z,5.10
2018-04-30T04:46:43.243Z,5.30
2018-04-30T04:49:11.732Z,5.50
2018-04-30T04:51:40.279Z,5.60
2018-04-30T04:54:08.850Z,5.80
2018-04-30T04:56:37.416Z,5.70
2018-04-30T04:59:07.707Z,5.90
2018-04-30T05:01:36.258Z,6.10
2018-04-30T05:04:05.529Z,6.30
2018-04-30T05:06:34.029Z,6.30
2018-04-30T05:09:02.554Z,6.50
2018-04-30T05:11:31.123Z,6.70
2018-04-30T05:13:59.614Z,6.50
2018-04-30T05:16:29.062Z,7.00
2018-04-30T05:18:59.604Z,7.80
2018-04-30T05:21:28.091Z,8.40
2018-04-30T05:23:56.648Z,8.70
2018-04-30T05:26:25.677Z,9.00
2018-04-30T05:28:54.670Z,9.10
2018-04-30T05:31:23.932Z,9.40
2018-04-30T05:33:52.933Z,9.40
2018-04-30T05:36:21.621Z,9.60
2018-04-30T05:38:55.420Z,10.00
2018-04-30T05:41:25.591Z,9.80
2018-04-30T05:43:54.686Z,9.80
2018-04-30T05:46:23.231Z,10.00
2018-04-30T05:48:52.066Z,10.00
2018-04-30T05:51:22.548Z,9.70
2018-04-30T05:53:51.186Z,9.40
2018-04-30T05:56:20.575Z,9.40
2018-04-30T05:58:49.185Z,9.30
2018-04-30T06:01:17.946Z,8.90
2018-04-30T06:03:57.481Z,9.00
2018-04-30T06:06:26.296Z,8.80
2018-04-30T06:09:02.847Z,8.90
2018-04-30T06:11:31.422Z,9.30
2018-04-30T06:14:02.590Z,10.10
2018-04-30T06:16:31.560Z,10.10
2018-04-30T06:19:00.455Z,10.00
2018-04-30T06:21:29.548Z,10.10
2018-04-30T06:23:58.072Z,9.90
2018-04-30T06:26:26.711Z,9.90
2018-04-30T06:28:55.365Z,9.90
2018-04-30T06:31:23.820Z,9.90
2018-04-30T06:33:52.311Z,9.80
2018-04-30T06:36:20.822Z,9.80
2018-04-30T06:38:49.378Z,9.80
2018-04-30T06:41:17.971Z,10.10
2018-04-30T06:43:46.909Z,10.40
2018-04-30T06:46:15.918Z,10.30
2018-04-30T06:48:44.399Z,10.30
2018-04-30T06:51:13.302Z,10.40
2018-04-30T06:53:42.073Z,10.40
2018-04-30T06:56:10.738Z,10.50
2018-04-30T06:58:39.648Z,11.00
2018-04-30T07:01:08.442Z,11.10
2018-04-30T07:03:37.639Z,11.20
2018-04-30T07:06:06.711Z,10.90
2018-04-30T07:08:35.812Z,10.70
2018-04-30T07:11:04.434Z,10.80
2018-04-30T07:13:33.999Z,10.90
2018-04-30T07:16:02.495Z,10.80
2018-04-30T07:18:30.948Z,10.80
2018-04-30T07:20:59.494Z,10.80
2018-04-30T07:23:28.075Z,10.80
2018-04-30T07:25:56.561Z,10.80
2018-04-30T07:28:27.012Z,11.00
2018-04-30T07:30:56.295Z,11.10
2018-04-30T07:33:24.962Z,11.10
2018-04-30T07:35:54.502Z,11.20
2018-04-30T07:38:23.316Z,10.90
2018-04-30T07:40:51.939Z,10.70
2018-04-30T07:43:20.581Z,10.80
2018-04-30T07:45:49.247Z,10.90
2018-04-30T07:48:18.057Z,10.90
2018-04-30T07:50:50.842Z,10.80
2018-04-30T07:53:19.456Z,11.00
2018-04-30T07:55:48.186Z,11.10
2018-04-30T07:58:17.206Z,11.10
2018-04-30T08:00:45.995Z,11.10
2018-04-30T08:03:14.675Z,10.90
2018-04-30T08:05:43.774Z,10.80
2018-04-30T08:08:14.165Z,10.90
2018-04-30T08:10:42.705Z,10.90
2018-04-30T08:13:11.475Z,10.80
2018-04-30T08:15:40.471Z,10.80
2018-04-30T08:18:09.660Z,10.60
2018-04-30T08:20:38.148Z,10.60
2018-04-30T08:23:06.626Z,10.80
2018-04-30T08:25:35.098Z,10.60
2018-04-30T08:28:03.682Z,10.40
2018-04-30T08:30:32.195Z,10.40
2018-04-30T08:33:00.696Z,10.60
2018-04-30T08:35:29.350Z,10.60
2018-04-30T08:38:00.355Z,10.50
2018-04-30T08:40:30.761Z,10.40
2018-04-30T08:42:59.280Z,10.40
2018-04-30T08:45:27.976Z,10.40
2018-04-30T08:47:57.567Z,10.40
2018-04-30T08:50:26.608Z,10.60
2018-04-30T08:52:55.600Z,10.60
2018-04-30T08:55:24.341Z,10.90
2018-04-30T08:57:53.134Z,11.00
2018-04-30T09:00:22.686Z,11.00
2018-04-30T09:02:51.617Z,10.90
2018-04-30T09:05:20.415Z,11.00
2018-04-30T09:07:49.516Z,11.10
2018-04-30T09:10:18.168Z,11.20
2018-04-30T09:12:46.890Z,11.20
2018-04-30T09:15:15.876Z,11.30
2018-04-30T09:17:44.666Z,11.40
2018-04-30T09:20:13.128Z,11.20
2018-04-30T09:22:43.555Z,11.20
2018-04-30T09:25:12.032Z,11.10
2018-04-30T09:27:40.511Z,11.10
2018-04-30T09:30:08.979Z,11.10
2018-04-30T09:32:37.612Z,10.90
2018-04-30T09:35:06.175Z,10.90
2018-04-30T09:37:34.653Z,10.90
2018-04-30T09:40:03.991Z,11.00
2018-04-30T09:42:32.505Z,11.00
2018-04-30T09:45:00.967Z,11.10
2018-04-30T09:47:29.715Z,11.10
2018-04-30T09:49:58.368Z,11.10
2018-04-30T09:52:27.328Z,11.10
2018-04-30T09:54:57.008Z,11.20
2018-04-30T09:57:26.504Z,11.10
2018-04-30T09:59:54.979Z,11.30
2018-04-30T10:02:23.484Z,11.10
2018-04-30T10:04:52.041Z,11.10
2018-04-30T10:07:20.912Z,11.20
2018-04-30T10:09:49.799Z,11.20
2018-04-30T10:12:19.363Z,11.20
2018-04-30T10:14:48.138Z,11.20
2018-04-30T10:17:16.800Z,11.30
2018-04-30T10:19:45.443Z,11.30
2018-04-30T10:22:14.591Z,11.40
2018-04-30T10:24:43.087Z,11.50
2018-04-30T10:27:11.666Z,11.50
2018-04-30T10:29:41.046Z,11.40
2018-04-30T10:32:09.604Z,11.40
2018-04-30T10:34:38.115Z,11.70
2018-04-30T10:37:06.616Z,12.00
2018-04-30T10:39:35.150Z,12.10
2018-04-30T10:42:03.648Z,12.10
2018-04-30T10:44:32.156Z,12.00
2018-04-30T10:47:00.694Z,12.10
2018-04-30T10:49:29.733Z,12.20
2018-04-30T10:51:58.411Z,12.40
2018-04-30T10:54:27.510Z,12.30
2018-04-30T10:56:56.194Z,12.10
2018-04-30T10:59:25.164Z,12.10
2018-04-30T11:01:53.902Z,12.20
2018-04-30T11:04:22.919Z,12.20
2018-04-30T11:06:51.560Z,12.20
2018-04-30T11:09:20.438Z,12.10
2018-04-30T11:11:49.069Z,12.30
2018-04-30T11:14:18.636Z,12.60
2018-04-30T11:16:47.173Z,12.30
2018-04-30T11:19:15.649Z,12.30
2018-04-30T11:21:44.173Z,12.10
2018-04-30T11:24:12.661Z,12.10
2018-04-30T11:26:42.448Z,12.50
2018-04-30T11:29:11.305Z,12.50
2018-04-30T11:31:40.254Z,12.60
2018-04-30T11:34:08.789Z,12.70
2018-04-30T11:36:37.420Z,12.90
2018-04-30T11:39:06.879Z,13.00
2018-04-30T11:41:35.672Z,13.00
2018-04-30T11:44:04.389Z,13.00
2018-04-30T11:46:33.599Z,13.00
2018-04-30T11:49:02.686Z,13.10
2018-04-30T11:51:31.202Z,13.10
2018-04-30T11:53:59.816Z,13.20
2018-04-30T11:56:28.304Z,13.20
2018-04-30T11:58:56.784Z,13.10
2018-04-30T12:01:25.401Z,13.10
2018-04-30T12:03:55.153Z,13.20
2018-04-30T12:06:23.819Z,13.10
2018-04-30T12:08:52.999Z,13.10
2018-04-30T12:11:21.977Z,13.10
2018-04-30T12:13:50.777Z,12.90
2018-04-30T12:16:19.257Z,12.80
2018-04-30T12:18:47.859Z,12.90
2018-04-30T12:21:16.375Z,12.70
2018-04-30T12:23:44.972Z,12.60
2018-04-30T12:26:13.704Z,12.60
2018-04-30T12:28:49.036Z,12.80
2018-04-30T12:31:17.588Z,12.80
2018-04-30T12:33:46.088Z,12.70
2018-04-30T12:36:15.338Z,12.90
2018-04-30T12:38:43.831Z,12.90
2018-04-30T12:41:12.345Z,13.00
2018-04-30T12:43:40.964Z,13.30
2018-04-30T12:46:09.544Z,13.10
2018-04-30T12:48:38.064Z,13.10
2018-04-30T12:51:06.736Z,13.10
2018-04-30T12:53:35.274Z,13.20
2018-04-30T12:56:03.842Z,13.20
2018-04-30T12:58:32.316Z,13.30
2018-04-30T13:01:01.676Z,13.10
2018-04-30T13:03:30.507Z,13.00
2018-04-30T13:05:59.226Z,13.00
2018-04-30T13:08:28.417Z,12.80
2018-04-30T13:10:57.782Z,13.00
2018-04-30T13:13:26.502Z,13.00
2018-04-30T13:15:55.698Z,13.00
2018-04-30T13:18:24.200Z,12.70
2018-04-30T13:20:52.728Z,12.80
2018-04-30T13:23:21.337Z,12.80
2018-04-30T13:25:49.821Z,12.80
2018-04-30T13:28:18.362Z,12.90
2018-04-30T13:30:47.014Z,12.90
2018-04-30T13:33:15.538Z,12.70
2018-04-30T13:35:44.129Z,12.90
2018-04-30T13:38:12.965Z,12.80
2018-04-30T13:40:41.632Z,12.80
2018-04-30T13:43:10.132Z,12.70
2018-04-30T13:45:39.504Z,12.90
2018-04-30T13:48:08.107Z,12.90
2018-04-30T13:50:37.311Z,12.80
2018-04-30T13:53:05.943Z,12.70
2018-04-30T13:55:34.934Z,12.60
2018-04-30T13:58:03.771Z,12.60
2018-04-30T14:00:32.843Z,12.60
2018-04-30T14:03:01.956Z,12.60
2018-04-30T14:05:30.563Z,12.60
2018-04-30T14:07:59.222Z,12.70
2018-04-30T14:10:27.910Z,12.60
2018-04-30T14:12:57.113Z,12.60
2018-04-30T14:15:26.123Z,12.70
2018-04-30T14:17:54.813Z,12.80
2018-04-30T14:20:23.478Z,12.70
2018-04-30T14:22:52.173Z,12.70
2018-04-30T14:25:20.954Z,12.60
2018-04-30T14:27:50.029Z,12.70
2018-04-30T14:30:19.138Z,12.80
2018-04-30T14:32:47.823Z,12.90
2018-04-30T14:35:16.831Z,13.00
2018-04-30T14:37:45.527Z,13.10
2018-04-30T14:40:14.213Z,13.20
2018-04-30T14:42:42.880Z,13.10
2018-04-30T14:45:11.572Z,12.90
2018-04-30T14:47:40.764Z,13.10
2018-04-30T14:50:09.445Z,13.30
2018-04-30T14:52:38.536Z,13.40
2018-04-30T14:55:07.226Z,13.10
2018-04-30T14:57:35.857Z,13.10
2018-04-30T15:00:05.011Z,13.40
2018-04-30T15:02:33.478Z,13.50
2018-04-30T15:05:03.886Z,13.40
2018-04-30T15:07:32.701Z,13.40
2018-04-30T15:10:01.186Z,13.30
2018-04-30T15:12:29.769Z,13.20
2018-04-30T15:14:59.138Z,13.00
2018-04-30T15:17:27.615Z,13.00
2018-04-30T15:19:56.359Z,13.20
2018-04-30T15:22:25.125Z,13.40
2018-04-30T15:24:53.797Z,13.40
2018-04-30T15:27:22.936Z,13.20
2018-04-30T15:29:51.553Z,13.10
2018-04-30T15:32:20.944Z,13.10
2018-04-30T15:34:49.881Z,13.10
2018-04-30T15:37:18.827Z,13.00
2018-04-30T15:39:48.071Z,13.00
2018-04-30T15:42:16.837Z,12.80
2018-04-30T15:44:45.385Z,12.80
2018-04-30T15:47:13.876Z,12.80
2018-04-30T15:49:42.451Z,12.60
2018-04-30T15:52:11.105Z,12.70
2018-04-30T15:54:39.602Z,12.70
2018-04-30T15:57:08.208Z,12.70
2018-04-30T15:59:37.078Z,12.70
2018-04-30T16:02:05.831Z,12.60
2018-04-30T16:04:34.931Z,12.50
2018-04-30T16:07:03.522Z,12.40
2018-04-30T16:09:32.747Z,12.30
2018-04-30T16:12:01.292Z,12.30
2018-04-30T16:14:30.685Z,12.20
2018-04-30T16:17:01.234Z,12.40
2018-04-30T16:19:29.725Z,12.30
2018-04-30T16:21:58.248Z,12.40
2018-04-30T16:24:26.760Z,12.30
2018-04-30T16:26:55.225Z,12.20
2018-04-30T16:29:24.184Z,12.20
2018-04-30T16:31:53.340Z,12.00
2018-04-30T16:34:21.875Z,12.10
2018-04-30T16:36:50.720Z,12.20
2018-04-30T16:39:20.167Z,12.00
2018-04-30T16:41:48.659Z,11.90
2018-04-30T16:44:17.190Z,11.80
2018-04-30T16:46:45.788Z,11.60
2018-04-30T16:49:14.556Z,11.70
2018-04-30T16:51:43.240Z,11.70
2018-04-30T16:54:12.337Z,11.80
2018-04-30T16:56:41.427Z,11.60
2018-04-30T16:59:10.060Z,11.60
2018-04-30T17:01:39.210Z,11.50
2018-04-30T17:04:07.870Z,11.50
2018-04-30T17:06:36.988Z,11.40
2018-04-30T17:09:06.904Z,11.40
2018-04-30T17:11:35.520Z,11.40
2018-04-30T17:14:11.849Z,11.40
2018-04-30T17:16:40.601Z,11.40
2018-04-30T17:19:09.345Z,11.40
2018-04-30T17:21:38.010Z,11.40
2018-04-30T17:24:06.948Z,11.40
2018-04-30T17:26:35.844Z,11.30
2018-04-30T17:29:04.994Z,11.30
2018-04-30T17:31:34.094Z,11.20
2018-04-30T17:34:03.217Z,11.00
2018-04-30T17:43:15.717Z,10.60
2018-04-30T17:45:45.247Z,10.60
2018-04-30T17:48:19.142Z,10.60
2018-04-30T17:50:47.932Z,10.50
2018-04-30T17:53:17.032Z,10.50
2018-04-30T17:55:45.541Z,10.50
2018-04-30T17:58:14.294Z,10.50
2018-04-30T18:00:43.036Z,10.40
2018-04-30T18:03:11.697Z,10.30
2018-04-30T18:05:40.716Z,10.40
2018-04-30T18:08:09.358Z,10.30
2018-04-30T18:10:38.031Z,10.30
2018-04-30T18:13:06.839Z,10.30
2018-04-30T18:15:35.506Z,10.30
2018-04-30T18:18:13.221Z,10.20
2018-04-30T18:20:41.888Z,10.20
2018-04-30T18:23:11.089Z,10.20
2018-04-30T18:25:40.180Z,10.20
2018-04-30T18:28:09.189Z,10.20
2018-04-30T18:30:37.863Z,10.10
2018-04-30T18:33:07.065Z,10.10
2018-04-30T18:35:39.444Z,10.10
2018-04-30T18:38:07.949Z,10.00
2018-04-30T18:40:36.534Z,9.90
2018-04-30T18:43:05.087Z,9.80
2018-04-30T18:45:34.031Z,9.90
2018-04-30T18:48:02.869Z,9.80
2018-04-30T18:50:31.959Z,9.80
2018-04-30T18:53:15.339Z,9.80
2018-04-30T18:55:44.057Z,9.70
2018-04-30T18:58:13.164Z,9.80
2018-04-30T19:00:41.832Z,9.80
2018-04-30T19:03:10.953Z,9.80
2018-04-30T19:05:39.632Z,9.80
2018-04-30T19:08:10.369Z,9.70
2018-04-30T19:10:38.973Z,9.70
2018-04-30T19:13:07.641Z,9.60
2018-04-30T19:15:36.330Z,9.70
2018-04-30T19:18:05.049Z,9.70
2018-04-30T19:20:33.687Z,9.70
2018-04-30T19:23:02.355Z,9.50
2018-04-30T19:25:31.072Z,9.50
2018-04-30T19:27:59.740Z,9.50
2018-04-30T19:30:28.431Z,9.40
2018-04-30T19:32:57.123Z,9.40
2018-04-30T19:35:25.816Z,9.40
2018-04-30T19:37:54.508Z,9.40
2018-04-30T19:40:23.177Z,9.40
2018-04-30T19:42:51.867Z,9.40
2018-04-30T19:45:21.087Z,9.30
2018-04-30T19:47:50.146Z,9.40
2018-04-30T19:50:18.821Z,9.30
2018-04-30T19:52:47.539Z,9.40
2018-04-30T19:55:16.524Z,9.50
2018-04-30T19:57:45.241Z,9.50
2018-04-30T20:00:14.205Z,9.40
2018-04-30T20:02:43.938Z,9.30
2018-04-30T20:05:13.344Z,9.40
2018-04-30T20:07:42.036Z,9.30
2018-04-30T20:10:10.700Z,9.30
2018-04-30T20:12:39.367Z,9.30
2018-04-30T20:15:08.345Z,9.20
2018-04-30T20:17:37.181Z,9.10
2018-04-30T20:20:06.344Z,9.10
2018-04-30T20:22:35.591Z,9.10
2018-04-30T20:25:04.107Z,9.10
2018-04-30T20:27:32.609Z,9.10
2018-04-30T20:30:01.229Z,9.10
2018-04-30T20:32:29.780Z,9.10
2018-04-30T20:35:00.653Z,9.10
2018-04-30T20:37:29.543Z,9.00
2018-04-30T20:39:58.090Z,8.90
2018-04-30T20:42:26.979Z,9.00
2018-04-30T20:44:56.081Z,8.90
2018-04-30T20:47:24.764Z,8.90
2018-04-30T20:49:53.446Z,8.90
2018-04-30T20:52:22.145Z,8.90
2018-04-30T20:54:51.605Z,8.90
2018-04-30T20:57:20.646Z,8.90
2018-04-30T20:59:50.587Z,8.90
2018-04-30T21:02:19.092Z,8.90
2018-04-30T21:04:47.944Z,8.80
2018-04-30T21:07:17.115Z,8.70
2018-04-30T21:09:45.684Z,8.70
2018-04-30T21:12:14.474Z,8.60
2018-04-30T21:14:43.086Z,8.70
2018-04-30T21:17:11.755Z,8.60
2018-04-30T21:19:40.240Z,8.60
2018-04-30T21:22:08.785Z,8.60
2018-04-30T21:24:37.455Z,8.60
2018-04-30T21:27:07.012Z,8.60
2018-04-30T21:29:35.699Z,8.50
2018-04-30T21:32:04.703Z,8.50
2018-04-30T21:34:33.310Z,8.50
2018-04-30T21:37:02.011Z,8.50
2018-04-30T21:39:30.849Z,8.50
2018-04-30T21:41:59.538Z,8.50
2018-04-30T21:44:29.841Z,8.50
2018-04-30T21:47:01.417Z,8.60
2018-04-30T21:49:30.494Z,8.30
2018-04-30T21:51:59.606Z,8.50
2018-04-30T21:54:28.283Z,8.40
2018-04-30T21:56:57.322Z,8.30
2018-04-30T21:59:26.390Z,8.40
2018-04-30T22:01:54.905Z,8.30
2018-04-30T22:04:23.422Z,8.30
2018-04-30T22:07:03.918Z,8.30
2018-04-30T22:09:32.704Z,8.20
2018-04-30T22:12:01.383Z,8.20
2018-04-30T22:14:30.389Z,8.00
2018-04-30T22:16:59.056Z,7.90
2018-04-30T22:19:27.719Z,7.90
2018-04-30T22:22:09.165Z,7.80
2018-04-30T22:24:39.053Z,7.90
2018-04-30T22:27:07.718Z,7.80
2018-04-30T22:29:36.515Z,7.80
2018-04-30T22:32:05.609Z,7.80
2018-04-30T22:34:34.496Z,7.70
2018-04-30T22:37:04.206Z,7.70
2018-04-30T22:39:33.154Z,7.70
2018-04-30T22:42:01.993Z,7.70
2018-04-30T22:44:30.510Z,7.60
2018-04-30T22:46:59.362Z,7.70
2018-04-30T22:49:28.296Z,7.70
2018-04-30T22:51:57.035Z,7.60
2018-04-30T22:54:25.757Z,7.70
2018-04-30T22:56:54.420Z,7.80
2018-04-30T22:59:23.209Z,7.70
2018-04-30T23:01:52.293Z,7.80
2018-04-30T23:04:22.241Z,7.90
2018-04-30T23:06:50.875Z,7.80
2018-04-30T23:09:19.367Z,7.90
2018-04-30T23:11:47.868Z,7.90
2018-04-30T23:14:16.473Z,7.90
2018-04-30T23:16:45.006Z,7.90
2018-04-30T23:19:13.913Z,7.90
2018-04-30T23:21:43.006Z,7.90
2018-04-30T23:24:12.103Z,8.00
2018-04-30T23:26:40.600Z,8.00
2018-04-30T23:29:09.136Z,8.00
2018-04-30T23:31:37.637Z,7.90
2018-04-30T23:34:06.438Z,8.00
2018-04-30T23:36:35.535Z,8.00
2018-04-30T23:39:04.139Z,8.00
2018-04-30T23:41:32.676Z,8.00
2018-04-30T23:44:02.264Z,8.00
2018-04-30T23:46:30.979Z,8.00
2018-04-30T23:48:59.780Z,8.00
2018-04-30T23:51:28.263Z,7.90
2018-04-30T23:53:56.750Z,7.80
2018-04-30T23:56:25.290Z,7.80
2018-04-30T23:58:53.781Z,7.70
